sensor_id;sensor_type;location;lat;lon;timestamp;pressure;altitude;pressure_sealevel;temperature;humidity
3668;BME280;24099;47.102;15.440;2023-03-03T00:01:53;97215.41;;;4.13;100.00
3668;BME280;24099;47.102;15.440;2023-03-03T00:04:21;97222.94;;;4.16;100.00
3668;BME280;24099;47.102;15.440;2023-03-03T00:06:54;97214.44;;;4.14;100.00
3668;BME280;24099;47.102;15.440;2023-03-03T00:09:22;97204.72;;;4.06;100.00
3668;BME280;24099;47.102;15.440;2023-03-03T00:11:54;97209.25;;;4.04;100.00
3668;BME280;24099;47.102;15.440;2023-03-03T00:14:27;97213.25;;;3.89;100.00
3668;BME280;24099;47.102;15.440;2023-03-03T00:17:11;97210.91;;;3.96;100.00
3668;BME280;24099;47.102;15.440;2023-03-03T00:19:41;97212.25;;;4.00;100.00
3668;BME280;24099;47.102;15.440;2023-03-03T00:22:20;97204.72;;;4.06;100.00
3668;BME280;24099;47.102;15.440;2023-03-03T00:24:57;97209.25;;;4.04;100.00
3668;BME280;24099;47.102;15.440;2023-03-03T00:27:34;97206.41;;;3.98;100.00
3668;BME280;24099;47.102;15.440;2023-03-03T00:30:05;97191.97;;;4.03;100.00
3668;BME280;24099;47.102;15.440;2023-03-03T00:32:45;97205.13;;;4.02;100.00
3668;BME280;24099;47.102;15.440;2023-03-03T00:35:27;97201.06;;;3.80;100.00
3668;BME280;24099;47.102;15.440;2023-03-03T00:38:13;97210.78;;;3.97;100.00
3668;BME280;24099;47.102;15.440;2023-03-03T00:40:47;97197.91;;;3.96;100.00
3668;BME280;24099;47.102;15.440;2023-03-03T00:43:18;97198.72;;;3.96;100.00
3668;BME280;24099;47.102;15.440;2023-03-03T00:45:48;97198.97;;;4.03;100.00
3668;BME280;24099;47.102;15.440;2023-03-03T00:48:23;97194.03;;;4.00;100.00
3668;BME280;24099;47.102;15.440;2023-03-03T00:50:52;97190.22;;;3.94;100.00
3668;BME280;24099;47.102;15.440;2023-03-03T00:53:22;97187.47;;;3.96;100.00
3668;BME280;24099;47.102;15.440;2023-03-03T00:55:51;97189.81;;;3.99;100.00
3668;BME280;24099;47.102;15.440;2023-03-03T00:58:20;97183.66;;;3.90;100.00
3668;BME280;24099;47.102;15.440;2023-03-03T01:00:55;97192.41;;;3.89;100.00
3668;BME280;24099;47.102;15.440;2023-03-03T01:03:41;97180.22;;;3.99;100.00
3668;BME280;24099;47.102;15.440;2023-03-03T01:06:10;97178.16;;;3.93;100.00
3668;BME280;24099;47.102;15.440;2023-03-03T01:08:38;97169.53;;;3.83;100.00
3668;BME280;24099;47.102;15.440;2023-03-03T01:11:19;97172.28;;;3.81;100.00
3668;BME280;24099;47.102;15.440;2023-03-03T01:13:51;97173.53;;;3.77;100.00
3668;BME280;24099;47.102;15.440;2023-03-03T01:16:20;97171.06;;;3.76;100.00
3668;BME280;24099;47.102;15.440;2023-03-03T01:18:51;97171.06;;;3.76;100.00
3668;BME280;24099;47.102;15.440;2023-03-03T01:21:21;97162.16;;;3.78;100.00
3668;BME280;24099;47.102;15.440;2023-03-03T01:23:49;97169.25;;;3.96;100.00
3668;BME280;24099;47.102;15.440;2023-03-03T01:26:26;97174.34;;;3.88;100.00
3668;BME280;24099;47.102;15.440;2023-03-03T01:28:54;97169.00;;;3.89;100.00
3668;BME280;24099;47.102;15.440;2023-03-03T01:31:24;97162.69;;;3.82;100.00
3668;BME280;24099;47.102;15.440;2023-03-03T01:33:57;97164.09;;;3.76;100.00
3668;BME280;24099;47.102;15.440;2023-03-03T01:36:25;97161.63;;;3.75;100.00
3668;BME280;24099;47.102;15.440;2023-03-03T01:38:54;97154.19;;;3.80;100.00
3668;BME280;24099;47.102;15.440;2023-03-03T01:41:22;97152.19;;;3.74;100.00
3668;BME280;24099;47.102;15.440;2023-03-03T01:43:56;97158.44;;;3.81;100.00
3668;BME280;24099;47.102;15.440;2023-03-03T01:46:46;97154.50;;;3.77;100.00
3668;BME280;24099;47.102;15.440;2023-03-03T01:49:21;97152.19;;;3.64;100.00
3668;BME280;24099;47.102;15.440;2023-03-03T01:51:55;97161.22;;;3.70;100.00
3668;BME280;24099;47.102;15.440;2023-03-03T01:54:34;97163.69;;;3.71;100.00
3668;BME280;24099;47.102;15.440;2023-03-03T01:57:09;97162.44;;;3.66;100.00
3668;BME280;24099;47.102;15.440;2023-03-03T01:59:46;97159.72;;;3.58;100.00
3668;BME280;24099;47.102;15.440;2023-03-03T02:02:16;97165.88;;;3.66;100.00
3668;BME280;24099;47.102;15.440;2023-03-03T02:04:45;97155.63;;;3.55;100.00
3668;BME280;24099;47.102;15.440;2023-03-03T02:07:14;97160.28;;;3.52;100.00
3668;BME280;24099;47.102;15.440;2023-03-03T02:09:49;97164.78;;;3.50;100.00
3668;BME280;24099;47.102;15.440;2023-03-03T02:12:21;97167.69;;;3.56;100.00
3668;BME280;24099;47.102;15.440;2023-03-03T02:14:51;97162.19;;;3.50;100.00
3668;BME280;24099;47.102;15.440;2023-03-03T02:17:20;97156.84;;;3.61;100.00
3668;BME280;24099;47.102;15.440;2023-03-03T02:19:56;97167.25;;;3.61;100.00
3668;BME280;24099;47.102;15.440;2023-03-03T02:22:37;97165.63;;;3.50;100.00
3668;BME280;24099;47.102;15.440;2023-03-03T02:25:17;97163.56;;;3.34;100.00
3668;BME280;24099;47.102;15.440;2023-03-03T02:27:51;97168.66;;;3.36;100.00
3668;BME280;24099;47.102;15.440;2023-03-03T02:30:28;97165.91;;;3.37;100.00
3668;BME280;24099;47.102;15.440;2023-03-03T02:32:58;97165.06;;;3.46;100.00
3668;BME280;24099;47.102;15.440;2023-03-03T02:35:31;97158.94;;;3.38;100.00
3668;BME280;24099;47.102;15.440;2023-03-03T02:38:06;97163.69;;;3.42;100.00
3668;BME280;24099;47.102;15.440;2023-03-03T02:40:39;97161.25;;;3.31;100.00
3668;BME280;24099;47.102;15.440;2023-03-03T02:43:11;97154.25;;;3.32;100.00
3668;BME280;24099;47.102;15.440;2023-03-03T02:45:45;97159.88;;;3.37;100.00
3668;BME280;24099;47.102;15.440;2023-03-03T02:48:14;97159.59;;;3.40;100.00
3668;BME280;24099;47.102;15.440;2023-03-03T02:50:42;97160.03;;;3.35;100.00
3668;BME280;24099;47.102;15.440;2023-03-03T02:53:12;97152.63;;;3.31;100.00
3668;BME280;24099;47.102;15.440;2023-03-03T02:55:49;97155.88;;;3.23;100.00
3668;BME280;24099;47.102;15.440;2023-03-03T02:58:22;97150.03;;;3.11;100.00
3668;BME280;24099;47.102;15.440;2023-03-03T03:00:56;97151.94;;;3.09;100.00
3668;BME280;24099;47.102;15.440;2023-03-03T03:03:23;97154.38;;;3.01;100.00
3668;BME280;24099;47.102;15.440;2023-03-03T03:05:52;97152.06;;;2.98;100.00
3668;BME280;24099;47.102;15.440;2023-03-03T03:08:22;97148.09;;;3.04;100.00
3668;BME280;24099;47.102;15.440;2023-03-03T03:10:50;97147.69;;;3.08;100.00
3668;BME280;24099;47.102;15.440;2023-03-03T03:13:20;97143.72;;;3.14;100.00
3668;BME280;24099;47.102;15.440;2023-03-03T03:15:48;97149.88;;;3.13;100.00
3668;BME280;24099;47.102;15.440;2023-03-03T03:18:16;97151.09;;;3.09;100.00
3668;BME280;24099;47.102;15.440;2023-03-03T03:20:45;97152.22;;;3.16;100.00
3668;BME280;24099;47.102;15.440;2023-03-03T03:23:13;97147.00;;;3.16;100.00
3668;BME280;24099;47.102;15.440;2023-03-03T03:25:42;97146.69;;;3.00;100.00
3668;BME280;24099;47.102;15.440;2023-03-03T03:28:19;97151.09;;;3.09;100.00
3668;BME280;24099;47.102;15.440;2023-03-03T03:30:47;97151.41;;;3.16;100.00
3668;BME280;24099;47.102;15.440;2023-03-03T03:33:18;97141.25;;;3.13;100.00
3668;BME280;24099;47.102;15.440;2023-03-03T03:35:50;97143.47;;;3.17;100.00
3668;BME280;24099;47.102;15.440;2023-03-03T03:38:18;97145.34;;;3.25;100.00
3668;BME280;24099;47.102;15.440;2023-03-03T03:40:48;97140.56;;;3.20;100.00
3668;BME280;24099;47.102;15.440;2023-03-03T03:43:15;97137.81;;;3.22;100.00
3668;BME280;24099;47.102;15.440;2023-03-03T03:45:48;97135.63;;;3.07;100.00
3668;BME280;24099;47.102;15.440;2023-03-03T03:48:16;97121.41;;;3.02;100.00
3668;BME280;24099;47.102;15.440;2023-03-03T03:50:48;97123.44;;;2.89;100.00
3668;BME280;24099;47.102;15.440;2023-03-03T03:53:17;97132.50;;;2.94;100.00
3668;BME280;24099;47.102;15.440;2023-03-03T03:55:54;97124.41;;;2.88;100.00
3668;BME280;24099;47.102;15.440;2023-03-03T03:58:23;97125.22;;;2.88;100.00
3668;BME280;24099;47.102;15.440;2023-03-03T04:01:01;97125.34;;;2.87;100.00
3668;BME280;24099;47.102;15.440;2023-03-03T04:03:29;97126.88;;;2.80;100.00
3668;BME280;24099;47.102;15.440;2023-03-03T04:05:57;97123.97;;;2.73;100.00
3668;BME280;24099;47.102;15.440;2023-03-03T04:08:25;97128.06;;;2.66;100.00
3668;BME280;24099;47.102;15.440;2023-03-03T04:10:53;97128.19;;;2.64;100.00
3668;BME280;24099;47.102;15.440;2023-03-03T04:13:21;97127.66;;;2.70;100.00
3668;BME280;24099;47.102;15.440;2023-03-03T04:15:49;97130.22;;;2.61;100.00
3668;BME280;24099;47.102;15.440;2023-03-03T04:19:05;97125.59;;;2.55;100.00
3668;BME280;24099;47.102;15.440;2023-03-03T04:21:24;97123.66;;;2.47;100.00
3668;BME280;24099;47.102;15.440;2023-03-03T04:23:57;97125.41;;;2.47;100.00
3668;BME280;24099;47.102;15.440;2023-03-03T04:26:28;97123.41;;;2.60;100.00
3668;BME280;24099;47.102;15.440;2023-03-03T04:28:58;97134.59;;;2.60;100.00
3668;BME280;24099;47.102;15.440;2023-03-03T04:31:27;97131.00;;;2.32;100.00
3668;BME280;24099;47.102;15.440;2023-03-03T04:33:57;97138.38;;;2.37;100.00
3668;BME280;24099;47.102;15.440;2023-03-03T04:36:44;97129.78;;;2.46;100.00
3668;BME280;24099;47.102;15.440;2023-03-03T04:39:14;97129.66;;;2.48;100.00
3668;BME280;24099;47.102;15.440;2023-03-03T04:41:42;97125.41;;;2.47;100.00
3668;BME280;24099;47.102;15.440;2023-03-03T04:44:10;97132.13;;;2.39;100.00
3668;BME280;24099;47.102;15.440;2023-03-03T04:46:38;97128.25;;;2.34;100.00
3668;BME280;24099;47.102;15.440;2023-03-03T04:49:08;97130.19;;;2.41;100.00
3668;BME280;24099;47.102;15.440;2023-03-03T04:51:36;97130.47;;;2.48;100.00
3668;BME280;24099;47.102;15.440;2023-03-03T04:54:14;97137.63;;;2.56;100.00
3668;BME280;24099;47.102;15.440;2023-03-03T04:56:43;97132.00;;;2.60;100.00
3668;BME280;24099;47.102;15.440;2023-03-03T04:59:12;97128.19;;;2.55;100.00
3668;BME280;24099;47.102;15.440;2023-03-03T05:01:41;97131.47;;;2.57;100.00
3668;BME280;24099;47.102;15.440;2023-03-03T05:04:10;97137.84;;;2.43;100.00
3668;BME280;24099;47.102;15.440;2023-03-03T05:06:39;97139.63;;;2.42;100.00
3668;BME280;24099;47.102;15.440;2023-03-03T05:09:07;97136.63;;;2.47;100.00
3668;BME280;24099;47.102;15.440;2023-03-03T05:11:35;97141.44;;;2.52;100.00
3668;BME280;24099;47.102;15.440;2023-03-03T05:14:02;97131.03;;;2.52;100.00
3668;BME280;24099;47.102;15.440;2023-03-03T05:16:33;97133.38;;;2.55;100.00
3668;BME280;24099;47.102;15.440;2023-03-03T05:19:01;97138.00;;;2.51;100.00
3668;BME280;24099;47.102;15.440;2023-03-03T05:21:30;97134.97;;;2.46;100.00
3668;BME280;24099;47.102;15.440;2023-03-03T05:23:58;97141.44;;;2.52;100.00
3668;BME280;24099;47.102;15.440;2023-03-03T05:26:26;97136.53;;;2.58;100.00
3668;BME280;24099;47.102;15.440;2023-03-03T05:28:57;97141.19;;;2.64;100.00
3668;BME280;24099;47.102;15.440;2023-03-03T05:31:25;97140.91;;;2.67;100.00
3668;BME280;24099;47.102;15.440;2023-03-03T05:33:53;97138.59;;;2.64;100.00
3668;BME280;24099;47.102;15.440;2023-03-03T05:36:21;97151.56;;;2.64;100.00
3668;BME280;24099;47.102;15.440;2023-03-03T05:38:52;97152.13;;;2.68;100.00
3668;BME280;24099;47.102;15.440;2023-03-03T05:41:20;97148.03;;;2.65;100.00
3668;BME280;24099;47.102;15.440;2023-03-03T05:43:48;97153.22;;;2.65;100.00
3668;BME280;24099;47.102;15.440;2023-03-03T05:46:16;97151.75;;;2.72;100.00
3668;BME280;24099;47.102;15.440;2023-03-03T05:48:45;97157.88;;;2.71;100.00
3668;BME280;24099;47.102;15.440;2023-03-03T05:51:14;97156.50;;;2.67;100.00
3668;BME280;24099;47.102;15.440;2023-03-03T05:53:42;97161.72;;;2.67;100.00
3668;BME280;24099;47.102;15.440;2023-03-03T05:56:24;97159.94;;;2.68;100.00
3668;BME280;24099;47.102;15.440;2023-03-03T05:59:01;97167.59;;;2.69;100.00
3668;BME280;24099;47.102;15.440;2023-03-03T06:01:29;97169.94;;;2.72;100.00
3668;BME280;24099;47.102;15.440;2023-03-03T06:03:58;97169.38;;;2.69;100.00
3668;BME280;24099;47.102;15.440;2023-03-03T06:06:29;97168.16;;;2.73;100.00
3668;BME280;24099;47.102;15.440;2023-03-03T06:08:57;97175.25;;;2.81;100.00
3668;BME280;24099;47.102;15.440;2023-03-03T06:11:29;97175.13;;;2.82;100.00
3668;BME280;24099;47.102;15.440;2023-03-03T06:13:59;97173.91;;;2.86;100.00
3668;BME280;24099;47.102;15.440;2023-03-03T06:16:27;97175.13;;;2.82;100.00
3668;BME280;24099;47.102;15.440;2023-03-03T06:18:55;97175.69;;;2.86;100.00
3668;BME280;24099;47.102;15.440;2023-03-03T06:21:24;97183.91;;;2.91;100.00
3668;BME280;24099;47.102;15.440;2023-03-03T06:24:10;97186.00;;;2.97;100.00
3668;BME280;24099;47.102;15.440;2023-03-03T06:27:10;97184.47;;;3.04;100.00
3668;BME280;24099;47.102;15.440;2023-03-03T06:29:38;97185.84;;;3.08;100.00
3668;BME280;24099;47.102;15.440;2023-03-03T06:32:07;97190.53;;;3.14;100.00
3668;BME280;24099;47.102;15.440;2023-03-03T06:34:34;97199.72;;;3.18;100.00
3668;BME280;24099;47.102;15.440;2023-03-03T06:37:02;97200.09;;;3.23;100.00
3668;BME280;24099;47.102;15.440;2023-03-03T06:39:31;97201.63;;;3.26;100.00
3668;BME280;24099;47.102;15.440;2023-03-03T06:41:59;97202.59;;;3.34;100.00
3668;BME280;24099;47.102;15.440;2023-03-03T06:44:29;97206.72;;;3.37;100.00
3668;BME280;24099;47.102;15.440;2023-03-03T06:46:56;97207.22;;;3.40;100.00
3668;BME280;24099;47.102;15.440;2023-03-03T06:49:24;97213.81;;;3.44;100.00
3668;BME280;24099;47.102;15.440;2023-03-03T06:51:52;97213.41;;;3.49;100.00
3668;BME280;24099;47.102;15.440;2023-03-03T06:54:27;97211.78;;;3.58;100.00
3668;BME280;24099;47.102;15.440;2023-03-03T06:56:58;97212.84;;;3.65;100.00
3668;BME280;24099;47.102;15.440;2023-03-03T06:59:29;97214.91;;;3.71;100.00
3668;BME280;24099;47.102;15.440;2023-03-03T07:01:59;97213.81;;;3.73;100.00
3668;BME280;24099;47.102;15.440;2023-03-03T07:04:29;97224.34;;;3.81;100.00
3668;BME280;24099;47.102;15.440;2023-03-03T07:07:06;97212.69;;;3.86;100.00
3668;BME280;24099;47.102;15.440;2023-03-03T07:09:35;97225.31;;;3.90;100.00
3668;BME280;24099;47.102;15.440;2023-03-03T07:12:09;97231.88;;;3.94;100.00
3668;BME280;24099;47.102;15.440;2023-03-03T07:14:45;97225.84;;;3.94;100.00
3668;BME280;24099;47.102;15.440;2023-03-03T07:17:20;97232.44;;;3.98;100.00
3668;BME280;24099;47.102;15.440;2023-03-03T07:19:52;97228.28;;;4.05;100.00
3668;BME280;24099;47.102;15.440;2023-03-03T07:22:27;97224.59;;;4.07;100.00
3668;BME280;24099;47.102;15.440;2023-03-03T07:24:58;97239.81;;;4.12;100.00
3668;BME280;24099;47.102;15.440;2023-03-03T07:27:28;97236.91;;;4.15;100.00
3668;BME280;24099;47.102;15.440;2023-03-03T07:30:19;97233.91;;;4.20;100.00
3668;BME280;24099;47.102;15.440;2023-03-03T07:32:52;97229.75;;;4.27;100.00
3668;BME280;24099;47.102;15.440;2023-03-03T07:35:34;97225.91;;;4.31;100.00
3668;BME280;24099;47.102;15.440;2023-03-03T07:38:36;97218.50;;;4.36;100.00
3668;BME280;24099;47.102;15.440;2023-03-03T07:41:11;97215.03;;;4.45;100.00
3668;BME280;24099;47.102;15.440;2023-03-03T07:43:46;97199.94;;;4.48;100.00
3668;BME280;24099;47.102;15.440;2023-03-03T07:46:33;97211.16;;;4.59;100.00
3668;BME280;24099;47.102;15.440;2023-03-03T07:49:15;97198.34;;;4.65;100.00
3668;BME280;24099;47.102;15.440;2023-03-03T07:52:28;97187.38;;;4.89;100.00
3668;BME280;24099;47.102;15.440;2023-03-03T07:54:59;97191.28;;;5.03;100.00
3668;BME280;24099;47.102;15.440;2023-03-03T07:57:36;97177.75;;;5.17;100.00
3668;BME280;24099;47.102;15.440;2023-03-03T08:03:36;97174.31;;;5.52;100.00
3668;BME280;24099;47.102;15.440;2023-03-03T08:06:23;97168.03;;;5.45;100.00
3668;BME280;24099;47.102;15.440;2023-03-03T08:08:59;97171.19;;;5.48;100.00
3668;BME280;24099;47.102;15.440;2023-03-03T08:11:29;97177.78;;;5.61;100.00
3668;BME280;24099;47.102;15.440;2023-03-03T08:13:57;97175.94;;;5.71;100.00
3668;BME280;24099;47.102;15.440;2023-03-03T08:16:33;97168.53;;;5.84;100.00
3668;BME280;24099;47.102;15.440;2023-03-03T08:19:09;97166.69;;;5.76;100.00
3668;BME280;24099;47.102;15.440;2023-03-03T08:21:47;97172.06;;;5.75;100.00
3668;BME280;24099;47.102;15.440;2023-03-03T08:24:17;97164.09;;;6.02;100.00
3668;BME280;24099;47.102;15.440;2023-03-03T08:26:45;97154.22;;;6.14;100.00
3668;BME280;24099;47.102;15.440;2023-03-03T08:29:13;97164.63;;;6.32;100.00
3668;BME280;24099;47.102;15.440;2023-03-03T08:31:41;97171.50;;;6.41;100.00
3668;BME280;24099;47.102;15.440;2023-03-03T08:34:12;97165.34;;;6.50;100.00
3668;BME280;24099;47.102;15.440;2023-03-03T08:36:41;97164.25;;;6.61;100.00
3668;BME280;24099;47.102;15.440;2023-03-03T08:39:11;97167.22;;;6.66;100.00
3668;BME280;24099;47.102;15.440;2023-03-03T08:41:41;97174.13;;;6.75;100.00
3668;BME280;24099;47.102;15.440;2023-03-03T08:44:10;97173.84;;;6.86;100.00
3668;BME280;24099;47.102;15.440;2023-03-03T08:46:38;97171.38;;;6.76;100.00
3668;BME280;24099;47.102;15.440;2023-03-03T08:49:08;97166.66;;;6.88;100.00
3668;BME280;24099;47.102;15.440;2023-03-03T08:51:40;97171.91;;;6.96;100.00
3668;BME280;24099;47.102;15.440;2023-03-03T08:54:11;97165.72;;;6.97;100.00
3668;BME280;24099;47.102;15.440;2023-03-03T08:56:41;97165.56;;;6.99;100.00
3668;BME280;24099;47.102;15.440;2023-03-03T08:59:09;97164.56;;;7.08;100.00
3668;BME280;24099;47.102;15.440;2023-03-03T09:01:38;97165.44;;;7.16;100.00
3668;BME280;24099;47.102;15.440;2023-03-03T09:04:09;97167.75;;;7.44;100.00
3668;BME280;24099;47.102;15.440;2023-03-03T09:06:39;97166.59;;;7.46;100.00
3668;BME280;24099;47.102;15.440;2023-03-03T09:09:07;97158.28;;;7.59;100.00
3668;BME280;24099;47.102;15.440;2023-03-03T09:11:37;97157.28;;;7.52;100.00
3668;BME280;24099;47.102;15.440;2023-03-03T09:14:10;97156.13;;;7.71;100.00
3668;BME280;24099;47.102;15.440;2023-03-03T09:16:41;97153.66;;;7.93;100.00
3668;BME280;24099;47.102;15.440;2023-03-03T09:19:21;97155.38;;;8.42;100.00
3668;BME280;24099;47.102;15.440;2023-03-03T09:21:51;97147.53;;;8.25;100.00
3668;BME280;24099;47.102;15.440;2023-03-03T09:24:24;97153.56;;;8.58;100.00
3668;BME280;24099;47.102;15.440;2023-03-03T09:26:54;97143.81;;;8.75;100.00
3668;BME280;24099;47.102;15.440;2023-03-03T09:29:25;97134.25;;;9.13;100.00
3668;BME280;24099;47.102;15.440;2023-03-03T09:31:55;97140.09;;;9.46;100.00
3668;BME280;24099;47.102;15.440;2023-03-03T09:34:26;97129.94;;;9.81;100.00
3668;BME280;24099;47.102;15.440;2023-03-03T09:36:58;97132.75;;;10.17;100.00
3668;BME280;24099;47.102;15.440;2023-03-03T09:39:30;97130.81;;;9.58;100.00
3668;BME280;24099;47.102;15.440;2023-03-03T09:45:17;97138.16;;;9.17;100.00
3668;BME280;24099;47.102;15.440;2023-03-03T09:48:03;97143.81;;;9.52;100.00
3668;BME280;24099;47.102;15.440;2023-03-03T09:50:43;97140.75;;;9.86;100.00
3668;BME280;24099;47.102;15.440;2023-03-03T09:53:28;97139.81;;;10.16;100.00
3668;BME280;24099;47.102;15.440;2023-03-03T09:56:08;97140.16;;;9.98;100.00
3668;BME280;24099;47.102;15.440;2023-03-03T09:58:52;97141.69;;;10.08;100.00
3668;BME280;24099;47.102;15.440;2023-03-03T10:01:41;97147.44;;;9.74;100.00
3668;BME280;24099;47.102;15.440;2023-03-03T10:04:35;97143.59;;;9.99;100.00
3668;BME280;24099;47.102;15.440;2023-03-03T10:07:18;97144.50;;;9.91;100.00
3668;BME280;24099;47.102;15.440;2023-03-03T10:12:45;97131.00;;;10.83;100.00
3668;BME280;24099;47.102;15.440;2023-03-03T10:15:28;97135.59;;;11.10;100.00
3668;BME280;24099;47.102;15.440;2023-03-03T10:18:12;97126.69;;;11.11;100.00
3668;BME280;24099;47.102;15.440;2023-03-03T10:20:59;97133.84;;;10.66;100.00
3668;BME280;24099;47.102;15.440;2023-03-03T10:26:39;97121.94;;;10.85;100.00
3668;BME280;24099;47.102;15.440;2023-03-03T10:29:20;97120.03;;;10.79;100.00
3668;BME280;24099;47.102;15.440;2023-03-03T10:32:11;97133.50;;;9.88;100.00
3668;BME280;24099;47.102;15.440;2023-03-03T10:34:54;97134.03;;;10.21;100.00
3668;BME280;24099;47.102;15.440;2023-03-03T10:37:34;97120.19;;;10.92;100.00
3668;BME280;24099;47.102;15.440;2023-03-03T10:40:15;97118.59;;;10.62;100.00
3668;BME280;24099;47.102;15.440;2023-03-03T10:43:08;97121.34;;;11.04;100.00
3668;BME280;24099;47.102;15.440;2023-03-03T10:46:01;97126.16;;;11.01;100.00
3668;BME280;24099;47.102;15.440;2023-03-03T10:48:49;97120.41;;;10.76;100.00
3668;BME280;24099;47.102;15.440;2023-03-03T10:51:30;97109.69;;;10.78;100.00
3668;BME280;24099;47.102;15.440;2023-03-03T10:54:25;97117.59;;;10.63;100.00
3668;BME280;24099;47.102;15.440;2023-03-03T10:57:02;97109.78;;;11.05;100.00
3668;BME280;24099;47.102;15.440;2023-03-03T10:59:47;97105.69;;;11.18;100.00
3668;BME280;24099;47.102;15.440;2023-03-03T11:02:25;97107.31;;;11.19;100.00
3668;BME280;24099;47.102;15.440;2023-03-03T11:05:13;97105.47;;;11.19;100.00
3668;BME280;24099;47.102;15.440;2023-03-03T11:07:56;97110.69;;;11.13;100.00
3668;BME280;24099;47.102;15.440;2023-03-03T11:10:50;97111.97;;;11.38;100.00
3668;BME280;24099;47.102;15.440;2023-03-03T11:13:27;97104.63;;;11.12;100.00
3668;BME280;24099;47.102;15.440;2023-03-03T11:16:13;97101.53;;;11.51;100.00
3668;BME280;24099;47.102;15.440;2023-03-03T11:18:55;97102.97;;;12.31;100.00
3668;BME280;24099;47.102;15.440;2023-03-03T11:21:31;97095.53;;;11.36;100.00
3668;BME280;24099;47.102;15.440;2023-03-03T11:30:39;97084.88;;;13.30;100.00
3668;BME280;24099;47.102;15.440;2023-03-03T11:33:16;97080.22;;;12.71;100.00
3668;BME280;24099;47.102;15.440;2023-03-03T11:35:50;97085.97;;;12.05;100.00
3668;BME280;24099;47.102;15.440;2023-03-03T11:38:44;97079.72;;;12.48;100.00
3668;BME280;24099;47.102;15.440;2023-03-03T11:41:28;97077.22;;;12.33;100.00
3668;BME280;24099;47.102;15.440;2023-03-03T11:44:02;97076.00;;;12.35;100.00
3668;BME280;24099;47.102;15.440;2023-03-03T11:46:39;97074.91;;;12.23;100.00
3668;BME280;24099;47.102;15.440;2023-03-03T11:49:20;97072.00;;;12.12;100.00
3668;BME280;24099;47.102;15.440;2023-03-03T11:51:55;97075.78;;;12.02;100.00
3668;BME280;24099;47.102;15.440;2023-03-03T11:54:31;97068.66;;;11.96;100.00
3668;BME280;24099;47.102;15.440;2023-03-03T11:57:13;97067.25;;;12.00;100.00
3668;BME280;24099;47.102;15.440;2023-03-03T11:59:48;97062.03;;;11.79;100.00
3668;BME280;24099;47.102;15.440;2023-03-03T12:03:04;97057.69;;;11.22;100.00
3668;BME280;24099;47.102;15.440;2023-03-03T12:05:56;97055.50;;;11.75;100.00
3668;BME280;24099;47.102;15.440;2023-03-03T12:08:55;97059.97;;;12.02;100.00
3668;BME280;24099;47.102;15.440;2023-03-03T12:11:29;97061.09;;;12.21;100.00
3668;BME280;24099;47.102;15.440;2023-03-03T12:14:04;97053.88;;;12.36;100.00
3668;BME280;24099;47.102;15.440;2023-03-03T12:16:44;97054.50;;;12.38;100.00
3668;BME280;24099;47.102;15.440;2023-03-03T12:19:27;97046.13;;;12.83;100.00
3668;BME280;24099;47.102;15.440;2023-03-03T12:22:24;97056.28;;;12.31;100.00
3668;BME280;24099;47.102;15.440;2023-03-03T12:25:08;97053.78;;;12.17;100.00
3668;BME280;24099;47.102;15.440;2023-03-03T12:27:47;97053.72;;;12.10;100.00
3668;BME280;24099;47.102;15.440;2023-03-03T12:30:25;97040.34;;;12.59;100.00
3668;BME280;24099;47.102;15.440;2023-03-03T12:33:12;97042.25;;;12.72;100.00
3668;BME280;24099;47.102;15.440;2023-03-03T12:35:49;97038.81;;;12.85;100.00
3668;BME280;24099;47.102;15.440;2023-03-03T12:38:34;97035.88;;;12.60;100.00
3668;BME280;24099;47.102;15.440;2023-03-03T12:41:10;97035.78;;;12.33;100.00
3668;BME280;24099;47.102;15.440;2023-03-03T12:43:51;97032.47;;;12.18;100.00
3668;BME280;24099;47.102;15.440;2023-03-03T12:46:44;97041.00;;;12.20;100.00
3668;BME280;24099;47.102;15.440;2023-03-03T12:49:21;97037.72;;;12.12;100.00
3668;BME280;24099;47.102;15.440;2023-03-03T12:52:04;97041.78;;;12.14;100.00
3668;BME280;24099;47.102;15.440;2023-03-03T12:54:58;97041.63;;;11.88;100.00
3668;BME280;24099;47.102;15.440;2023-03-03T12:57:37;97030.28;;;11.66;100.00
3668;BME280;24099;47.102;15.440;2023-03-03T13:00:26;97036.91;;;11.77;100.00
3668;BME280;24099;47.102;15.440;2023-03-03T13:03:03;97037.81;;;11.69;100.00
3668;BME280;24099;47.102;15.440;2023-03-03T13:05:39;97040.44;;;11.69;100.00
3668;BME280;24099;47.102;15.440;2023-03-03T13:08:30;97039.00;;;11.38;100.00
3668;BME280;24099;47.102;15.440;2023-03-03T13:11:15;97046.59;;;11.27;100.00
3668;BME280;24099;47.102;15.440;2023-03-03T13:13:51;97037.78;;;11.41;100.00
3668;BME280;24099;47.102;15.440;2023-03-03T13:16:23;97033.97;;;11.44;100.00
3668;BME280;24099;47.102;15.440;2023-03-03T13:18:56;97036.66;;;11.50;100.00
3668;BME280;24099;47.102;15.440;2023-03-03T13:21:34;97037.53;;;11.57;100.00
3668;BME280;24099;47.102;15.440;2023-03-03T13:24:14;97037.66;;;11.49;100.00
3668;BME280;24099;47.102;15.440;2023-03-03T13:26:46;97038.94;;;11.60;100.00
3668;BME280;24099;47.102;15.440;2023-03-03T13:29:22;97036.66;;;11.50;100.00
3668;BME280;24099;47.102;15.440;2023-03-03T13:31:55;97037.09;;;11.54;100.00
3668;BME280;24099;47.102;15.440;2023-03-03T13:34:38;97038.63;;;11.20;100.00
3668;BME280;24099;47.102;15.440;2023-03-03T13:37:14;97033.16;;;11.71;100.00
3668;BME280;24099;47.102;15.440;2023-03-03T13:39:54;97034.72;;;11.59;100.00
3668;BME280;24099;47.102;15.440;2023-03-03T13:42:29;97037.13;;;11.60;100.00
3668;BME280;24099;47.102;15.440;2023-03-03T13:45:00;97036.44;;;11.73;100.00
3668;BME280;24099;47.102;15.440;2023-03-03T13:47:42;97029.72;;;11.98;100.00
3668;BME280;24099;47.102;15.440;2023-03-03T13:50:23;97037.75;;;11.62;100.00
3668;BME280;24099;47.102;15.440;2023-03-03T13:53:05;97035.09;;;11.56;100.00
3668;BME280;24099;47.102;15.440;2023-03-03T13:55:38;97029.06;;;11.40;100.00
3668;BME280;24099;47.102;15.440;2023-03-03T13:58:19;97028.03;;;11.35;100.00